KSPW/SPW METAR and TAF weather

Enter ICAO airport designator
Station Type Date Time Source
KSPW METAR 2021/04/13 05:53 UTC NOAA

KSPW 130553Z AUTO 30019G23KT 10SM OVC043 04/M03 A3007 RMK AO2 PK WND 29030/0512 SLP189 T00391028 10078 20039 401330033 53016


Station Type Date Time Source
KSPW Decoded METAR 2021/04/13 05:53 UTC NOAA

SPENCER MUNICIPAL AIRPORT, IA, United States (KSPW) 43-10N 95-13W 403M
Apr 13, 2021 - 01:53 AM EDT / 2021.04.13 0553 UTC
Wind: from the WNW (300 degrees) at 22 MPH (19 KT) gusting to 26 MPH (23 KT):0
Visibility: 10 mile(s):0
Sky conditions: overcast
Temperature: 39.0 F (3.9 C)
Dew Point: 27.0 F (-2.8 C)
Relative Humidity: 61%
Pressure (altimeter): 30.07 in. Hg (1018 hPa)
Pressure tendency: 0.05 inches (1.6 hPa) higher than three hours ago
ob: KSPW 130553Z AUTO 30019G23KT 10SM OVC043 04/M03 A3007 RMK AO2 PK WND 29030/0512 SLP189 T00391028 10078 20039 401330033 53016
cycle: 6

Station Type Date Time Source
KSPW TAF UTC NOAA

Error!

Example: see airport list